Time;durP1;ratioP1;P1;durP2;ratioP2;P2;SDS_P1;SDS_P2;PMS_P1;PMS_P2;Temp;Humidity;BMP_temperature;BMP_pressure;BME280_temperature;BME280_humidity;BME280_pressure;Samples;Min_cycle;Max_cycle;Signal;HPM_P1;HPM_P2
2022/08/08 00:02:08;;;;;;;;;4.75;4.75;;;;;21.72;37.75;101878.28;5100309;27;45328;-52
2022/08/08 00:04:41;;;;;;;;;5.00;3.50;;;;;21.64;37.24;101869.25;5100534;27;45464;-53
2022/08/08 00:07:27;;;;;;;;;4.75;3.00;;;;;21.63;37.65;101870.28;5100156;27;46215;-50
2022/08/08 00:10:10;;;;;;;;;5.00;4.00;;;;;21.61;37.44;101864.22;5100052;27;45359;-52
2022/08/08 00:13:18;;;;;;;;;4.00;4.00;;;;;21.58;37.43;101864.63;5100350;27;45348;-52
2022/08/08 00:15:49;;;;;;;;;3.00;3.00;;;;;21.56;38.11;101868.53;5037291;28;45300;-54
2022/08/08 00:18:29;;;;;;;;;5.75;4.50;;;;;21.51;38.46;101866.41;5029512;28;47242;-56
2022/08/08 00:20:57;;;;;;;;;3.50;3.00;;;;;21.47;38.00;101864.28;5036987;28;45545;-49
2022/08/08 00:23:47;;;;;;;;;5.25;3.50;;;;;21.47;39.00;101864.28;5037074;28;45482;-52
2022/08/08 00:26:22;;;;;;;;;5.00;3.00;;;;;21.43;38.98;101869.22;5037158;28;45502;-53
2022/08/08 00:28:52;;;;;;;;;4.50;3.00;;;;;21.40;39.12;101856.91;5036569;28;47666;-51
2022/08/08 00:31:24;;;;;;;;;3.50;3.50;;;;;21.33;39.01;101849.75;5036706;28;45496;-52
2022/08/08 00:37:04;;;;;;;;;6.50;4.00;;;;;21.33;39.16;101853.31;5056515;28;45485;-56
2022/08/08 00:39:52;;;;;;;;;4.25;4.00;;;;;21.14;38.92;101838.47;5056607;28;46475;-53
2022/08/08 00:42:48;;;;;;;;;4.00;2.25;;;;;21.27;38.97;101858.59;5056667;28;45338;-55
2022/08/08 00:45:19;;;;;;;;;4.75;4.00;;;;;21.26;39.88;101862.34;5056802;28;45447;-56
2022/08/08 00:48:20;;;;;;;;;5.75;1.75;;;;;21.21;39.67;101860.22;5057074;28;45426;-53
2022/08/08 00:51:18;;;;;;;;;3.75;3.00;;;;;21.20;39.26;101853.13;5056480;28;46266;-51
2022/08/08 00:54:07;;;;;;;;;5.50;4.00;;;;;21.16;39.78;101852.66;5099415;27;45456;-49
2022/08/08 00:56:55;;;;;;;;;3.75;3.50;;;;;21.14;39.59;101856.56;5099620;27;45364;-54
2022/08/08 00:59:32;;;;;;;;;4.25;4.00;;;;;21.12;39.86;101862.19;5099597;27;45413;-53
2022/08/08 01:02:23;;;;;;;;;4.50;4.50;;;;;21.09;40.16;101851.72;5099359;27;46222;-52
2022/08/08 01:05:09;;;;;;;;;6.25;4.75;;;;;21.07;40.01;101852.94;5056399;28;45450;-49
2022/08/08 01:07:52;;;;;;;;;7.00;3.75;;;;;21.04;40.37;101848.75;5056266;28;45375;-52
2022/08/08 01:10:24;;;;;;;;;5.00;5.00;;;;;21.01;40.58;101857.25;5056120;28;45571;-52
2022/08/08 01:13:26;;;;;;;;;3.75;3.25;;;;;21.00;40.74;101843.91;5056086;28;46323;-54
2022/08/08 01:16:16;;;;;;;;;7.00;4.00;;;;;20.97;40.87;101850.53;5056102;28;45582;-49
2022/08/08 01:19:04;;;;;;;;;4.75;4.25;;;;;20.94;41.22;101848.19;5056357;28;45459;-54
2022/08/08 01:22:03;;;;;;;;;8.50;4.50;;;;;20.90;41.24;101842.34;5056088;28;45543;-55
2022/08/08 01:24:51;;;;;;;;;5.75;4.25;;;;;20.91;40.78;101840.47;5056125;28;46388;-51
2022/08/08 01:27:54;;;;;;;;;5.75;4.00;;;;;20.86;41.41;101830.22;5072760;28;45420;-52
2022/08/08 01:30:34;;;;;;;;;4.50;4.50;;;;;20.86;41.57;101837.50;5055893;28;45465;-50
2022/08/08 01:33:12;;;;;;;;;7.00;5.00;;;;;20.84;42.08;101837.66;5056143;28;45348;-49
2022/08/08 01:36:12;;;;;;;;;7.25;4.00;;;;;20.82;40.98;101838.91;5055724;28;47194;-47
2022/08/08 01:39:05;;;;;;;;;4.00;2.25;;;;;20.81;41.08;101842.63;5051404;28;45383;-50
2022/08/08 01:41:30;;;;;;;;;4.25;4.25;;;;;20.79;41.51;101837.41;5072676;27;45366;-51
2022/08/08 01:44:14;;;;;;;;;4.00;4.00;;;;;20.75;41.92;101843.38;5119426;27;45304;-50
2022/08/08 01:46:54;;;;;;;;;6.75;3.75;;;;;20.74;41.67;101839.84;5119309;27;45490;-52
2022/08/08 01:49:22;;;;;;;;;5.00;4.00;;;;;20.73;42.20;101834.59;5100560;27;45346;-51
2022/08/08 01:52:03;;;;;;;;;2.50;2.50;;;;;20.68;41.69;101846.81;5118572;27;45411;-50
2022/08/08 01:54:53;;;;;;;;;8.25;4.00;;;;;20.68;41.56;101848.69;5119438;27;45428;-52
2022/08/08 01:57:30;;;;;;;;;5.75;5.75;;;;;20.65;41.57;101849.06;5119146;27;45407;-49
2022/08/08 02:00:02;;;;;;;;;4.00;3.25;;;;;20.64;42.09;101848.22;5118939;27;45462;-50
2022/08/08 02:03:29;;;;;;;;;4.50;3.50;;;;;20.62;41.79;101844.03;5119441;27;45388;-52
2022/08/08 02:06:06;;;;;;;;;6.00;6.00;;;;;20.59;42.29;101839.00;4975922;28;45346;-51
2022/08/08 02:08:50;;;;;;;;;4.75;4.75;;;;;20.55;42.20;101843.09;4975689;28;46459;-50
2022/08/08 02:11:34;;;;;;;;;5.00;5.00;;;;;20.52;42.27;101838.03;4975905;28;45338;-52
2022/08/08 02:14:31;;;;;;;;;3.25;3.25;;;;;20.49;41.83;101836.56;4976052;28;45552;-52
2022/08/08 02:17:03;;;;;;;;;5.00;5.00;;;;;20.47;42.72;101843.97;4975915;28;45475;-49
2022/08/08 02:19:51;;;;;;;;;0.00;0.00;;;;;20.48;42.60;101842.09;4975851;28;46127;-50
2022/08/08 02:22:31;;;;;;;;;5.50;5.00;;;;;20.49;42.78;101844.69;4975821;28;45358;-52
2022/08/08 02:25:07;;;;;;;;;4.50;4.00;;;;;20.46;42.89;101842.31;4975944;28;45413;-50
2022/08/08 02:27:44;;;;;;;;;4.50;4.25;;;;;20.44;42.66;101838.97;4975549;28;45342;-50
2022/08/08 02:30:26;;;;;;;;;6.50;5.00;;;;;20.40;42.82;101835.78;4975281;28;46148;-52
2022/08/08 02:33:13;;;;;;;;;4.25;4.00;;;;;20.39;42.99;101839.53;4975608;28;45438;-51
2022/08/08 02:36:05;;;;;;;;;5.75;4.50;;;;;20.37;43.09;101836.16;4975553;28;45410;-50
2022/08/08 02:38:42;;;;;;;;;4.50;4.00;;;;;20.33;43.52;101834.84;4975741;28;45549;-50
2022/08/08 02:41:35;;;;;;;;;4.50;4.50;;;;;20.31;43.22;101833.31;5006814;28;45442;-48
2022/08/08 02:44:24;;;;;;;;;3.75;3.75;;;;;20.29;43.51;101830.81;5097709;27;45238;-51
2022/08/08 02:46:52;;;;;;;;;5.00;3.75;;;;;20.25;43.60;101845.72;5097740;27;45275;-51
2022/08/08 02:49:17;;;;;;;;;5.25;5.00;;;;;20.23;43.09;101841.53;5079468;27;45470;-53
2022/08/08 02:52:04;;;;;;;;;5.75;5.50;;;;;20.17;43.81;101841.22;5097454;27;46298;-52
2022/08/08 02:54:50;;;;;;;;;6.75;4.50;;;;;20.14;43.84;101847.03;5097797;27;45219;-50
2022/08/08 02:57:37;;;;;;;;;5.25;5.25;;;;;20.10;43.89;101847.53;5097628;27;45404;-49
2022/08/08 03:00:49;;;;;;;;;5.00;4.75;;;;;20.02;43.45;101836.84;5097642;27;45211;-50
2022/08/08 03:03:43;;;;;;;;;4.25;4.25;;;;;20.06;43.54;101841.69;5082164;27;45411;-50
2022/08/08 03:06:22;;;;;;;;;6.50;6.50;;;;;20.04;43.86;101845.59;5097329;27;45444;-48
2022/08/08 03:09:18;;;;;;;;;8.75;6.25;;;;;19.99;44.04;101851.53;5097546;27;45216;-56
2022/08/08 03:12:21;;;;;;;;;6.50;5.50;;;;;19.98;44.35;101840.91;5097698;27;45470;-51
2022/08/08 03:15:10;;;;;;;;;6.00;5.75;;;;;19.92;44.12;101837.91;5096946;27;46237;-51
2022/08/08 03:18:00;;;;;;;;;6.00;6.00;;;;;19.90;43.88;101837.25;5097324;27;45288;-51
2022/08/08 03:20:26;;;;;;;;;8.25;7.50;;;;;19.88;44.73;101846.56;5080096;27;45491;-49
2022/08/08 03:22:53;;;;;;;;;9.25;6.00;;;;;19.86;45.04;101848.59;5097684;27;45431;-53
2022/08/08 03:25:22;;;;;;;;;7.25;6.00;;;;;19.70;44.81;101836.06;5078503;27;47608;-56
2022/08/08 03:28:01;;;;;;;;;7.50;6.00;;;;;19.79;44.85;101851.19;5097076;27;45404;-49
2022/08/08 03:30:26;;;;;;;;;8.33;7.67;;;;;19.78;45.17;101852.22;5097238;27;45422;-59
2022/08/08 03:35:40;;;;;;;;;10.67;7.00;;;;;19.72;45.78;101849.38;5104453;27;45236;-51
2022/08/08 03:38:06;;;;;;;;;11.25;6.00;;;;;19.69;45.21;101853.28;5117538;27;45543;-52
2022/08/08 03:40:33;;;;;;;;;4.67;4.67;;;;;19.67;45.03;101861.53;5116668;27;45334;-49
2022/08/08 03:42:58;;;;;;;;;7.00;5.25;;;;;19.58;45.28;101843.69;5117856;27;45455;-50
2022/08/08 03:45:26;;;;;;;;;7.67;6.00;;;;;19.63;45.53;101854.81;5117241;27;46089;-51
2022/08/08 03:48:03;;;;;;;;;7.00;6.00;;;;;19.61;44.75;101854.19;5117698;27;45391;-52
2022/08/08 03:50:30;;;;;;;;;6.00;6.00;;;;;19.61;45.42;101861.44;5117707;27;45315;-51
2022/08/08 03:52:56;;;;;;;;;6.67;6.00;;;;;19.57;45.32;101852.81;5117821;27;45373;-51
2022/08/08 03:55:23;;;;;;;;;8.00;7.00;;;;;19.52;45.62;101844.44;5117542;27;45324;-52
2022/08/08 03:57:55;;;;;;;;;6.67;4.67;;;;;19.42;45.73;101843.81;5117304;27;45318;-57
2022/08/08 04:00:26;;;;;;;;;6.00;6.00;;;;;19.49;45.46;101860.97;5117496;27;45433;-53
2022/08/08 04:02:57;;;;;;;;;7.00;7.00;;;;;19.51;45.76;101868.88;5117718;27;45518;-50
2022/08/08 04:05:31;;;;;;;;;7.00;6.00;;;;;19.50;45.83;101864.50;5117302;27;46066;-50
2022/08/08 04:07:58;;;;;;;;;8.00;7.33;;;;;19.50;45.92;101861.81;5098466;27;45433;-51
2022/08/08 04:10:26;;;;;;;;;6.67;6.33;;;;;19.44;45.98;101857.97;5117585;27;45377;-52
2022/08/08 04:12:53;;;;;;;;;6.67;5.00;;;;;19.40;46.32;101857.47;5117355;27;45233;-49
2022/08/08 04:15:18;;;;;;;;;6.67;6.67;;;;;19.46;46.14;101880.22;5119320;27;45592;-53
2022/08/08 04:17:44;;;;;;;;;7.67;6.33;;;;;19.42;45.99;101871.66;5120393;27;45307;-49
2022/08/08 04:20:09;;;;;;;;;6.67;6.33;;;;;19.33;46.11;101859.19;5120714;27;45193;-50
2022/08/08 04:22:35;;;;;;;;;4.67;4.67;;;;;19.37;46.70;101870.47;5120969;27;45319;-53
2022/08/08 04:25:00;;;;;;;;;9.67;6.33;;;;;19.39;46.98;101879.25;5120392;27;45634;-52
2022/08/08 04:27:26;;;;;;;;;8.00;5.33;;;;;19.37;46.73;101875.88;5120494;27;45373;-52
2022/08/08 04:29:51;;;;;;;;;7.33;7.33;;;;;19.38;46.91;101877.56;5120534;27;45325;-51
2022/08/08 04:32:17;;;;;;;;;6.75;4.00;;;;;19.37;46.37;101881.28;5120665;27;45444;-49
2022/08/08 04:34:43;;;;;;;;;6.00;6.00;;;;;19.37;46.73;101875.88;5120317;27;46162;-51
2022/08/08 04:37:10;;;;;;;;;7.00;7.00;;;;;19.35;46.49;101876.06;5120437;27;45382;-52
2022/08/08 04:39:35;;;;;;;;;6.00;6.00;;;;;19.34;46.74;101877.09;5120541;27;45243;-53
2022/08/08 04:42:01;;;;;;;;;11.33;7.67;;;;;19.34;46.24;101877.09;5120519;27;45229;-51
2022/08/08 04:44:26;;;;;;;;;8.00;8.00;;;;;19.32;47.02;101879.13;5120018;27;45361;-49
2022/08/08 04:46:52;;;;;;;;;5.00;5.00;;;;;19.28;47.35;101883.19;5120296;27;45231;-50
2022/08/08 04:49:17;;;;;;;;;12.00;8.00;;;;;19.30;47.06;101886.56;5120304;27;45208;-50
2022/08/08 04:51:42;;;;;;;;;9.67;6.67;;;;;19.27;47.01;101884.19;5120475;27;45409;-59
2022/08/08 04:54:08;;;;;;;;;5.00;4.67;;;;;19.26;46.59;101885.22;5120096;27;45279;-50
2022/08/08 04:56:34;;;;;;;;;11.00;7.00;;;;;19.27;46.98;101891.47;5120047;27;45278;-52
2022/08/08 04:58:59;;;;;;;;;5.00;4.33;;;;;19.23;47.36;101890.13;5120501;27;45492;-51
2022/08/08 05:01:24;;;;;;;;;10.00;8.33;;;;;19.20;47.11;101889.44;5120246;27;45379;-53
2022/08/08 05:03:50;;;;;;;;;10.00;7.00;;;;;19.20;47.03;101896.69;5119771;27;46263;-53
2022/08/08 05:06:15;;;;;;;;;6.33;6.33;;;;;19.17;47.13;101887.13;5120149;27;45428;-53
2022/08/08 05:08:41;;;;;;;;;9.00;7.33;;;;;19.17;47.19;101895.22;5119905;27;45644;-49
2022/08/08 05:11:12;;;;;;;;;8.00;7.00;;;;;19.15;46.58;101889.13;5120334;27;45302;-51
2022/08/08 05:13:38;;;;;;;;;8.67;7.67;;;;;19.13;47.36;101899.28;5101143;27;47116;-55
2022/08/08 05:16:04;;;;;;;;;8.00;6.67;;;;;19.12;47.00;101896.72;5119542;27;45339;-52
2022/08/08 05:18:29;;;;;;;;;7.33;7.00;;;;;19.12;47.58;101897.56;5119658;27;45289;-51
2022/08/08 05:20:54;;;;;;;;;8.33;7.00;;;;;19.11;47.19;101901.28;5120327;27;45438;-50
2022/08/08 05:23:20;;;;;;;;;10.67;7.67;;;;;19.09;47.56;101895.25;5119905;27;46241;-55
2022/08/08 05:25:47;;;;;;;;;8.00;7.00;;;;;19.08;47.72;101898.94;5118686;27;45272;-53
2022/08/08 05:28:12;;;;;;;;;10.67;7.33;;;;;19.09;47.80;101899.81;5119651;27;45323;-52
2022/08/08 05:30:38;;;;;;;;;9.00;6.33;;;;;19.05;47.71;101909.25;5119967;27;45373;-55
2022/08/08 05:33:03;;;;;;;;;9.00;9.00;;;;;19.08;47.36;101908.88;5119176;27;45451;-55
2022/08/08 05:35:33;;;;;;;;;7.00;6.00;;;;;19.07;47.84;101905.34;5119475;27;45500;-54
2022/08/08 05:38:13;;;;;;;;;9.67;8.00;;;;;19.08;47.34;101915.13;5119431;27;45446;-55
2022/08/08 05:40:47;;;;;;;;;8.00;5.00;;;;;19.09;47.57;101907.91;5119631;27;45472;-52
2022/08/08 05:43:27;;;;;;;;;8.67;7.33;;;;;19.10;47.28;101913.09;5119220;27;46201;-51
2022/08/08 05:45:58;;;;;;;;;11.00;9.33;;;;;19.10;47.66;101923.06;5119216;27;45236;-54
2022/08/08 05:48:24;;;;;;;;;9.67;7.33;;;;;19.14;47.74;101921.69;5119334;27;45314;-51
2022/08/08 05:50:49;;;;;;;;;7.67;6.33;;;;;19.17;47.53;101926.72;5119389;27;45384;-52
2022/08/08 05:53:24;;;;;;;;;10.67;7.67;;;;;19.19;47.67;101932.78;5119153;27;45243;-54
2022/08/08 05:55:51;;;;;;;;;9.67;8.00;;;;;19.14;47.75;101911.75;5119157;27;45363;-53
2022/08/08 05:58:18;;;;;;;;;6.67;5.00;;;;;19.21;47.29;101925.34;5119248;27;45444;-51
2022/08/08 06:00:46;;;;;;;;;4.67;3.00;;;;;19.24;47.70;101932.28;5119459;27;45519;-51
2022/08/08 06:03:16;;;;;;;;;7.00;7.00;;;;;19.27;47.78;101926.53;5118898;27;47330;-51
2022/08/08 06:05:58;;;;;;;;;7.67;7.67;;;;;19.32;47.51;101929.53;5119210;27;45285;-50
2022/08/08 06:08:28;;;;;;;;;7.33;7.00;;;;;19.35;47.53;101931.91;5119164;27;45359;-53
2022/08/08 06:10:54;;;;;;;;;8.67;8.00;;;;;19.37;47.51;101927.97;5119496;27;45330;-51
2022/08/08 06:13:21;;;;;;;;;10.00;9.00;;;;;19.39;47.45;101935.94;5118876;27;47314;-57
2022/08/08 06:15:48;;;;;;;;;8.00;8.00;;;;;19.40;47.29;101935.75;5118852;27;45477;-50
2022/08/08 06:18:15;;;;;;;;;7.33;7.00;;;;;19.35;47.54;101916.53;5118885;27;45351;-49
2022/08/08 06:20:42;;;;;;;;;10.00;9.00;;;;;19.51;47.49;101939.91;5119861;27;45364;-53
2022/08/08 06:23:08;;;;;;;;;7.00;7.00;;;;;19.44;46.44;101926.28;5119759;27;46117;-50
2022/08/08 06:25:38;;;;;;;;;7.67;7.67;;;;;19.46;46.73;101928.78;5119310;27;45338;-50
2022/08/08 06:28:18;;;;;;;;;8.33;6.33;;;;;19.62;46.75;101949.50;5119277;27;45456;-51
2022/08/08 06:30:45;;;;;;;;;6.00;6.00;;;;;19.56;46.68;101929.44;5119023;27;45452;-51
2022/08/08 06:33:11;;;;;;;;;6.00;6.00;;;;;19.73;47.05;101951.81;5118350;27;46140;-53
2022/08/08 06:35:45;;;;;;;;;8.67;7.00;;;;;19.74;46.18;101947.25;5118270;27;45457;-53
2022/08/08 06:38:16;;;;;;;;;10.00;8.00;;;;;19.83;46.73;101954.28;5118563;27;45362;-52
2022/08/08 06:40:42;;;;;;;;;11.00;8.67;;;;;19.83;46.63;101944.31;5118877;27;45433;-53
2022/08/08 06:43:09;;;;;;;;;10.00;8.00;;;;;19.96;46.17;101953.69;5118384;27;45203;-50
2022/08/08 06:45:37;;;;;;;;;8.00;7.00;;;;;20.00;46.19;101960.41;5118670;27;45242;-54
2022/08/08 06:48:03;;;;;;;;;10.00;9.67;;;;;20.07;46.14;101954.13;5118577;27;45448;-57
2022/08/08 06:50:31;;;;;;;;;13.33;8.00;;;;;20.15;45.78;101962.16;5118518;27;45301;-49
2022/08/08 06:53:01;;;;;;;;;9.00;7.00;;;;;20.23;45.36;101957.72;5118365;27;46950;-54
2022/08/08 06:55:28;;;;;;;;;11.00;9.67;;;;;20.35;45.85;101962.53;5118582;27;45394;-49
2022/08/08 06:57:54;;;;;;;;;6.00;5.33;;;;;20.44;45.36;101961.41;5118424;27;45456;-54
2022/08/08 07:00:19;;;;;;;;;5.00;4.00;;;;;20.62;44.76;101966.53;5118509;27;45294;-53
2022/08/08 07:02:51;;;;;;;;;10.00;7.00;;;;;20.83;44.45;101960.41;5117157;27;46113;-53
2022/08/08 07:05:22;;;;;;;;;10.50;8.00;;;;;21.03;44.74;101939.06;5118200;27;45341;-56
2022/08/08 07:07:50;;;;;;;;;9.75;7.75;;;;;21.62;43.86;101970.69;5118076;27;45441;-50
2022/08/08 07:10:20;;;;;;;;;11.00;7.75;;;;;22.04;42.86;101969.91;5118255;27;45425;-58
2022/08/08 07:13:03;;;;;;;;;10.00;8.75;;;;;22.53;41.99;101968.28;5117836;27;46127;-58
2022/08/08 07:15:51;;;;;;;;;8.00;8.00;;;;;23.19;40.84;101965.25;5118008;27;45485;-53
2022/08/08 07:18:31;;;;;;;;;8.50;7.50;;;;;23.76;39.82;101970.31;5118009;27;45423;-57
2022/08/08 07:21:05;;;;;;;;;8.75;7.75;;;;;24.33;38.85;101979.00;5118341;27;45289;-54
2022/08/08 07:23:48;;;;;;;;;6.75;6.00;;;;;24.77;37.97;101975.69;5118031;27;45356;-57
2022/08/08 07:26:15;;;;;;;;;8.20;7.80;;;;;25.29;37.21;101982.13;5117907;27;45300;-58
2022/08/08 07:28:42;;;;;;;;;8.60;7.00;;;;;25.74;36.52;101973.94;5117714;27;45260;-49
2022/08/08 07:31:09;;;;;;;;;14.75;8.50;;;;;26.11;35.59;101966.00;5118121;27;45398;-50
2022/08/08 07:33:35;;;;;;;;;9.00;7.40;;;;;26.76;34.58;101980.22;5117644;27;45371;-50
2022/08/08 07:36:01;;;;;;;;;7.20;5.80;;;;;27.27;34.14;101973.59;5117596;27;45323;-51
2022/08/08 07:38:29;;;;;;;;;7.25;6.75;;;;;27.87;33.13;101983.81;5118091;27;45286;-50
2022/08/08 07:40:59;;;;;;;;;7.00;6.00;;;;;28.63;33.22;101975.91;5118069;27;45272;-50
2022/08/08 07:43:25;;;;;;;;;5.80;5.80;;;;;29.75;30.32;101981.13;5099053;27;48195;-51
2022/08/08 07:45:50;;;;;;;;;7.50;7.50;;;;;31.55;29.39;101979.03;5117328;27;45570;-55
2022/08/08 07:48:15;;;;;;;;;10.00;7.00;;;;;33.61;25.09;101974.03;5117593;27;45629;-54
2022/08/08 07:50:43;;;;;;;;;8.00;6.50;;;;;35.52;23.78;101985.50;5121088;27;45378;-53
2022/08/08 07:53:31;;;;;;;;;8.80;6.80;;;;;37.11;22.86;101972.81;5121081;27;45386;-54
2022/08/08 07:56:00;;;;;;;;;6.60;5.80;;;;;38.50;19.82;101971.63;5121206;27;45419;-56
2022/08/08 07:58:39;;;;;;;;;7.00;5.60;;;;;39.55;21.27;101961.41;5121299;27;45294;-49
2022/08/08 08:01:10;;;;;;;;;4.80;4.00;;;;;40.34;18.04;101974.03;5121676;27;45243;-51
2022/08/08 08:03:35;;;;;;;;;4.60;4.00;;;;;41.06;18.40;101964.53;5120994;27;45524;-52
2022/08/08 08:06:04;;;;;;;;;4.75;4.75;;;;;41.92;17.56;101965.78;5121049;27;45397;-53
2022/08/08 08:08:38;;;;;;;;;9.00;6.40;;;;;42.82;16.63;101966.56;5121348;27;45446;-54
2022/08/08 08:11:10;;;;;;;;;7.20;4.40;;;;;43.68;15.72;101972.75;5121454;27;45438;-53
2022/08/08 08:13:42;;;;;;;;;5.60;5.60;;;;;44.50;15.02;101969.31;5120985;27;45673;-53
2022/08/08 08:16:17;;;;;;;;;4.60;4.40;;;;;45.09;15.04;101971.69;5102445;27;45405;-54
2022/08/08 08:18:46;;;;;;;;;5.20;4.40;;;;;45.56;15.46;101973.16;5120964;27;45372;-52
2022/08/08 08:21:14;;;;;;;;;6.40;5.60;;;;;45.88;14.06;101968.47;5121210;27;45390;-54
2022/08/08 08:23:39;;;;;;;;;4.00;4.00;;;;;46.28;13.53;101974.03;5120743;27;46762;-53
2022/08/08 08:26:04;;;;;;;;;4.75;4.00;;;;;46.76;13.57;101972.84;5120757;27;45435;-51
2022/08/08 08:28:30;;;;;;;;;7.00;4.00;;;;;46.75;13.16;101965.56;5120761;27;45310;-50
2022/08/08 08:30:57;;;;;;;;;3.00;3.00;;;;;47.10;11.75;101966.81;5120971;27;45258;-52
2022/08/08 08:33:23;;;;;;;;;5.00;4.00;;;;;47.82;11.98;101974.81;5120325;27;46207;-51
2022/08/08 08:35:49;;;;;;;;;4.40;4.00;;;;;48.14;11.75;101967.81;5120257;27;45394;-53
2022/08/08 08:38:14;;;;;;;;;4.00;4.00;;;;;48.57;11.35;101967.75;5120594;27;45391;-50
2022/08/08 08:40:39;;;;;;;;;4.50;4.00;;;;;48.63;12.96;101971.88;5120706;27;45319;-50
2022/08/08 08:43:06;;;;;;;;;3.75;3.75;;;;;48.91;10.62;101971.53;5120458;27;46962;-50
2022/08/08 08:45:34;;;;;;;;;5.00;4.60;;;;;49.27;12.20;101972.09;5120321;27;45434;-54
2022/08/08 08:47:59;;;;;;;;;3.00;3.00;;;;;48.92;11.19;101962.66;5120211;27;45400;-54
2022/08/08 08:50:27;;;;;;;;;3.50;2.75;;;;;48.66;11.27;101966.28;5120816;27;45456;-54
2022/08/08 08:52:56;;;;;;;;;2.20;2.20;;;;;48.46;12.41;101974.06;5120234;27;45339;-51
2022/08/08 08:55:23;;;;;;;;;4.40;4.40;;;;;48.08;11.26;101974.13;5120229;27;45294;-53
2022/08/08 08:57:52;;;;;;;;;3.80;3.80;;;;;48.33;12.08;101966.91;5120411;27;45370;-54
2022/08/08 09:00:18;;;;;;;;;3.60;3.60;;;;;48.29;11.25;101928.53;5119904;27;45354;-52
2022/08/08 09:02:46;;;;;;;;;2.25;2.25;;;;;48.45;11.55;101966.75;5118687;27;45336;-54
2022/08/08 09:05:12;;;;;;;;;3.80;3.80;;;;;48.58;10.79;101975.03;5120249;27;45408;-55
2022/08/08 09:07:40;;;;;;;;;3.20;2.60;;;;;48.62;10.47;101971.06;5120038;27;45325;-52
2022/08/08 09:10:06;;;;;;;;;4.40;4.40;;;;;48.69;11.12;101968.38;5120424;27;45484;-52
2022/08/08 09:12:34;;;;;;;;;3.80;3.00;;;;;48.63;10.60;101967.06;5119931;27;46299;-52
2022/08/08 09:14:59;;;;;;;;;3.60;3.60;;;;;48.90;10.23;101967.09;5119998;27;45382;-58
2022/08/08 09:17:25;;;;;;;;;2.00;2.00;;;;;49.67;9.99;101966.53;5120245;27;45456;-54
2022/08/08 09:19:57;;;;;;;;;4.40;3.00;;;;;49.90;10.02;101968.44;5119972;27;45425;-58
2022/08/08 09:22:23;;;;;;;;;2.40;2.40;;;;;49.74;9.83;101965.00;5119741;27;46061;-55
2022/08/08 09:24:51;;;;;;;;;1.00;0.40;;;;;49.81;9.75;101968.69;5119657;27;45568;-54
2022/08/08 09:27:18;;;;;;;;;3.20;2.60;;;;;50.04;10.14;101965.75;5119753;27;45440;-50
2022/08/08 09:30:07;;;;;;;;;5.40;3.20;;;;;49.82;10.28;101963.88;5120025;27;45401;-54
2022/08/08 09:32:41;;;;;;;;;5.60;4.20;;;;;50.37;9.52;101972.56;5119320;27;45349;-57
2022/08/08 09:35:14;;;;;;;;;3.80;3.00;;;;;50.41;9.47;101962.88;5119183;27;45433;-53
2022/08/08 09:37:47;;;;;;;;;5.80;2.80;;;;;50.46;10.28;101961.69;5119921;27;45541;-55
2022/08/08 09:40:15;;;;;;;;;2.60;2.00;;;;;50.58;9.41;101967.06;5120018;27;45267;-51
2022/08/08 09:42:46;;;;;;;;;3.20;3.20;;;;;50.20;9.86;101950.56;5119746;27;46051;-53
2022/08/08 09:45:40;;;;;;;;;4.20;4.20;;;;;49.95;9.70;101956.78;5118659;27;45389;-53
2022/08/08 09:48:08;;;;;;;;;2.00;1.80;;;;;49.83;10.30;101954.22;5055678;28;45486;-55
2022/08/08 09:50:35;;;;;;;;;5.00;3.80;;;;;49.90;9.36;101954.31;5056075;28;45585;-53
2022/08/08 09:53:03;;;;;;;;;2.60;2.60;;;;;50.56;9.50;101957.34;5055605;28;46130;-52
2022/08/08 09:55:31;;;;;;;;;4.00;4.00;;;;;50.88;9.57;101954.75;5055737;28;45466;-54
2022/08/08 09:58:13;;;;;;;;;4.00;4.00;;;;;51.08;9.08;101958.13;5055815;28;45459;-55
2022/08/08 10:00:40;;;;;;;;;5.00;4.00;;;;;51.50;8.56;101957.50;5055989;28;45249;-53
2022/08/08 10:03:06;;;;;;;;;1.40;0.60;;;;;51.53;9.81;101948.16;5055718;28;45384;-52
2022/08/08 10:05:36;;;;;;;;;4.00;4.00;;;;;51.92;8.69;101958.88;5055416;28;45462;-56
2022/08/08 10:08:04;;;;;;;;;2.40;2.40;;;;;51.97;8.95;101952.00;5055926;28;45359;-53
2022/08/08 10:10:29;;;;;;;;;5.40;3.60;;;;;52.23;8.76;101950.81;5055856;28;45392;-57
2022/08/08 10:12:56;;;;;;;;;1.75;1.50;;;;;52.28;8.53;101953.22;5054942;28;46097;-53
2022/08/08 10:15:24;;;;;;;;;3.20;1.40;;;;;52.06;8.20;101958.06;5055198;28;45318;-53
2022/08/08 10:17:51;;;;;;;;;3.00;3.00;;;;;51.72;9.29;101949.06;5055378;28;45494;-54
2022/08/08 10:20:17;;;;;;;;;3.80;2.60;;;;;51.31;8.73;101946.50;5055815;28;45400;-50
2022/08/08 10:22:58;;;;;;;;;4.75;4.00;;;;;51.15;9.43;101939.09;5054688;28;46092;-50
2022/08/08 10:25:24;;;;;;;;;5.60;3.00;;;;;50.87;8.41;101933.31;5092144;27;45344;-54
2022/08/08 10:27:52;;;;;;;;;3.40;3.40;;;;;50.91;8.93;101934.13;5119063;27;45220;-50
2022/08/08 10:30:21;;;;;;;;;5.60;4.00;;;;;50.84;9.29;101934.06;5119207;27;45358;-55
2022/08/08 10:32:52;;;;;;;;;4.80;1.60;;;;;50.86;8.14;101925.97;5118558;27;46398;-51
2022/08/08 10:35:23;;;;;;;;;3.20;3.20;;;;;50.65;9.13;101927.44;5117715;27;45406;-54
2022/08/08 10:37:58;;;;;;;;;4.20;2.40;;;;;50.22;8.90;101925.50;5118928;27;45288;-55
2022/08/08 10:40:25;;;;;;;;;4.00;3.00;;;;;49.86;9.06;101919.50;5118549;27;45169;-53
2022/08/08 10:43:01;;;;;;;;;2.20;2.20;;;;;49.89;9.18;101924.34;5118641;27;46263;-55
2022/08/08 10:45:28;;;;;;;;;2.60;2.60;;;;;49.84;9.77;101927.53;5118616;27;45457;-54
2022/08/08 10:47:56;;;;;;;;;2.20;2.20;;;;;49.58;9.03;101929.28;5117887;27;45400;-53
2022/08/08 10:50:30;;;;;;;;;5.80;3.80;;;;;49.70;9.74;101919.72;5118632;27;45330;-54
2022/08/08 10:53:10;;;;;;;;;4.60;4.20;;;;;50.18;8.86;101912.13;5118410;27;46228;-56
2022/08/08 10:55:41;;;;;;;;;3.20;3.20;;;;;50.02;9.40;101916.38;5117395;27;45593;-54
2022/08/08 10:58:08;;;;;;;;;3.40;3.40;;;;;49.76;9.39;101915.31;5118505;27;45170;-52
2022/08/08 11:00:40;;;;;;;;;5.20;4.00;;;;;49.66;9.62;101911.19;5118465;27;45373;-57
2022/08/08 11:03:14;;;;;;;;;3.60;3.60;;;;;50.05;9.23;101896.63;5118415;27;45413;-52
2022/08/08 11:05:47;;;;;;;;;3.40;3.40;;;;;50.21;9.53;101919.03;5117955;27;45405;-54
2022/08/08 11:08:25;;;;;;;;;3.00;3.00;;;;;49.20;8.74;101919.91;5118260;27;45349;-55
2022/08/08 11:11:04;;;;;;;;;3.00;3.00;;;;;48.30;9.32;101907.63;5118435;27;45484;-50
2022/08/08 11:13:40;;;;;;;;;2.40;2.40;;;;;48.52;9.73;101920.09;5099534;27;47000;-53
2022/08/08 11:16:07;;;;;;;;;2.20;2.20;;;;;48.54;9.39;101914.88;5118188;27;45409;-53
2022/08/08 11:18:34;;;;;;;;;4.60;2.40;;;;;48.37;9.15;101911.34;5118229;27;45528;-56
2022/08/08 11:21:01;;;;;;;;;5.00;3.40;;;;;47.79;9.71;101914.34;5118225;27;45270;-53
2022/08/08 11:23:35;;;;;;;;;3.80;2.60;;;;;47.83;9.80;101917.22;5118176;27;46144;-50
2022/08/08 11:26:04;;;;;;;;;2.60;2.60;;;;;47.44;10.01;101911.59;5121301;27;45433;-49
2022/08/08 11:28:34;;;;;;;;;3.40;2.20;;;;;47.13;9.89;101912.56;5121766;27;45350;-52
2022/08/08 11:31:01;;;;;;;;;6.20;3.20;;;;;46.76;9.83;101905.25;5121890;27;45279;-50
2022/08/08 11:33:29;;;;;;;;;2.20;2.20;;;;;46.21;10.08;101901.50;5121328;27;46169;-50
2022/08/08 11:35:55;;;;;;;;;3.20;3.20;;;;;45.29;10.50;101894.06;5121312;27;45212;-51
2022/08/08 11:38:22;;;;;;;;;8.00;8.00;;;;;44.12;11.05;101910.66;5121693;27;45350;-53
2022/08/08 11:40:50;;;;;;;;;2.80;2.80;;;;;42.02;11.83;101906.75;5121780;27;45432;-51
2022/08/08 11:43:17;;;;;;;;;4.00;4.00;;;;;40.32;12.92;101899.03;5120948;27;45479;-52
2022/08/08 11:45:44;;;;;;;;;4.20;2.00;;;;;39.13;14.53;101891.06;5121365;27;45250;-53
2022/08/08 11:48:10;;;;;;;;;27.40;23.40;;;;;37.99;14.48;101887.16;5121429;27;45424;-50
2022/08/08 11:50:36;;;;;;;;;6.20;4.40;;;;;36.91;15.94;101890.66;5121778;27;45369;-51
2022/08/08 11:53:02;;;;;;;;;4.20;2.80;;;;;35.90;16.22;101898.03;5121029;27;45472;-52
2022/08/08 11:55:27;;;;;;;;;9.00;9.00;;;;;34.99;17.86;101886.44;5121154;27;45398;-54
2022/08/08 11:58:05;;;;;;;;;3.00;3.00;;;;;34.31;17.70;101878.56;5121427;27;45837;-53
2022/08/08 12:00:31;;;;;;;;;7.00;5.20;;;;;33.89;18.62;101862.28;5121537;27;45449;-53